createdAt,value
2019-03-20T00:00:59.524Z,74.80
2019-03-20T00:03:30.313Z,75.11
2019-03-20T00:06:00.745Z,75.58
2019-03-20T00:08:31.511Z,75.09
2019-03-20T00:11:02.318Z,75.49
2019-03-20T00:13:32.753Z,75.95
2019-03-20T00:16:03.569Z,75.42
2019-03-20T00:18:34.006Z,75.41
2019-03-20T00:21:04.535Z,75.26
2019-03-20T00:23:35.461Z,75.57
2019-03-20T00:26:05.909Z,75.75
2019-03-20T00:28:36.376Z,75.94
2019-03-20T00:31:06.812Z,75.97
2019-03-20T00:33:37.600Z,76.41
2019-03-20T00:36:08.353Z,76.42
2019-03-20T00:38:38.818Z,76.50
2019-03-20T00:41:09.253Z,76.93
2019-03-20T00:43:40.461Z,77.11
2019-03-20T00:46:10.900Z,76.96
2019-03-20T00:48:41.783Z,77.11
2019-03-20T00:51:12.217Z,76.90
2019-03-20T00:53:42.988Z,77.14
2019-03-20T00:56:14.146Z,77.40
2019-03-20T00:58:44.913Z,76.92
2019-03-20T01:01:15.853Z,76.61
2019-03-20T01:03:47.078Z,76.33
2019-03-20T01:06:17.865Z,76.27
2019-03-20T01:08:48.376Z,76.44
2019-03-20T01:11:18.855Z,76.42
2019-03-20T01:13:49.290Z,76.30
2019-03-20T01:16:19.728Z,76.62
2019-03-20T01:18:50.573Z,76.53
2019-03-20T01:21:21.078Z,76.81
2019-03-20T01:23:52.353Z,77.05
2019-03-20T01:26:22.815Z,76.86
2019-03-20T01:28:53.254Z,77.01
2019-03-20T01:31:23.737Z,77.08
2019-03-20T01:33:55.032Z,76.88
2019-03-20T01:36:25.490Z,76.80
2019-03-20T01:38:55.984Z,77.27
2019-03-20T01:41:37.353Z,77.25
2019-03-20T01:43:58.552Z,77.41
2019-03-20T01:46:29.448Z,77.21
2019-03-20T01:48:59.924Z,77.17
2019-03-20T01:51:30.405Z,77.21
2019-03-20T01:54:00.842Z,77.03
2019-03-20T01:56:31.608Z,77.10
2019-03-20T01:59:02.156Z,77.09
2019-03-20T02:01:32.589Z,77.37
2019-03-20T02:04:03.076Z,77.26
2019-03-20T02:06:33.881Z,77.27
2019-03-20T02:09:05.481Z,77.42
2019-03-20T02:11:35.949Z,77.63
2019-03-20T02:14:06.395Z,78.05
2019-03-20T02:16:36.889Z,78.31
2019-03-20T02:19:15.360Z,78.17
2019-03-20T02:21:45.841Z,78.32
2019-03-20T02:24:17.022Z,77.99
2019-03-20T02:26:47.937Z,78.33
2019-03-20T02:29:19.708Z,78.18
2019-03-20T02:31:50.140Z,78.29
2019-03-20T02:34:20.638Z,78.13
2019-03-20T02:36:51.059Z,77.82
2019-03-20T02:39:21.492Z,77.59
2019-03-20T02:41:52.018Z,77.73
2019-03-20T02:44:22.475Z,77.75
2019-03-20T02:46:53.625Z,77.83
2019-03-20T02:49:24.134Z,77.76
2019-03-20T02:51:55.026Z,77.83
2019-03-20T02:54:25.518Z,77.66
2019-03-20T02:56:55.939Z,77.95
2019-03-20T02:59:27.302Z,77.45
2019-03-20T03:01:57.809Z,77.92
2019-03-20T03:04:28.233Z,77.80
2019-03-20T03:06:58.715Z,77.85
2019-03-20T03:09:29.155Z,77.69
2019-03-20T03:11:59.573Z,77.80
2019-03-20T03:14:30.042Z,77.88
2019-03-20T03:17:00.483Z,77.67
2019-03-20T03:19:30.914Z,77.73
2019-03-20T03:22:01.369Z,77.98
2019-03-20T03:24:32.109Z,77.82
2019-03-20T03:27:02.588Z,77.87
2019-03-20T03:29:33.322Z,77.70
2019-03-20T03:32:03.765Z,77.98
2019-03-20T03:34:34.208Z,77.93
2019-03-20T03:37:04.988Z,77.74
2019-03-20T03:39:36.031Z,77.82
2019-03-20T03:42:06.912Z,77.66
2019-03-20T03:44:37.709Z,77.73
2019-03-20T03:47:08.302Z,77.79
2019-03-20T03:49:39.155Z,77.99
2019-03-20T03:52:09.637Z,77.93
2019-03-20T03:54:40.381Z,77.89
2019-03-20T03:57:11.044Z,77.78
2019-03-20T03:59:41.536Z,77.73
2019-03-20T04:02:12.003Z,77.62
2019-03-20T04:04:42.454Z,77.78
2019-03-20T04:07:12.978Z,78.08
2019-03-20T04:09:43.759Z,78.17
2019-03-20T04:12:14.527Z,78.26
2019-03-20T04:14:44.970Z,78.41
2019-03-20T04:17:23.767Z,78.48
2019-03-20T04:19:54.165Z,78.54
2019-03-20T04:22:24.955Z,78.29
2019-03-20T04:24:55.775Z,78.20
2019-03-20T04:27:27.090Z,78.57
2019-03-20T04:29:57.546Z,78.25
2019-03-20T04:32:27.985Z,78.53
2019-03-20T04:34:58.485Z,78.57
2019-03-20T04:37:29.507Z,78.32
2019-03-20T04:39:59.946Z,78.40
2019-03-20T04:42:30.690Z,78.52
2019-03-20T04:45:01.170Z,78.60
2019-03-20T04:47:31.953Z,78.43
2019-03-20T04:50:02.391Z,78.53
2019-03-20T04:52:33.503Z,78.40
2019-03-20T04:55:04.374Z,77.94
2019-03-20T04:57:34.810Z,78.06
2019-03-20T05:00:06.371Z,77.87
2019-03-20T05:02:36.808Z,77.92
2019-03-20T05:05:07.473Z,77.95
2019-03-20T05:07:37.954Z,77.91
2019-03-20T05:10:10.417Z,77.70
2019-03-20T05:12:41.269Z,77.55
2019-03-20T05:15:12.334Z,77.84
2019-03-20T05:17:43.179Z,77.97
2019-03-20T05:20:14.011Z,77.78
2019-03-20T05:22:44.466Z,77.70
2019-03-20T05:25:15.173Z,77.94
2019-03-20T05:27:46.052Z,78.10
2019-03-20T05:30:16.942Z,78.17
2019-03-20T05:32:48.084Z,78.17
2019-03-20T05:35:19.029Z,78.48
2019-03-20T05:37:50.232Z,78.42
2019-03-20T05:40:20.693Z,78.32
2019-03-20T05:42:51.176Z,78.31
2019-03-20T05:45:21.993Z,78.02
2019-03-20T05:47:52.403Z,77.77
2019-03-20T05:50:22.840Z,77.79
2019-03-20T05:52:53.321Z,77.52
2019-03-20T05:55:23.789Z,77.52
2019-03-20T05:57:54.224Z,77.44
2019-03-20T06:00:26.858Z,77.21
2019-03-20T06:02:57.546Z,77.18
2019-03-20T06:05:27.988Z,77.02
2019-03-20T06:07:58.536Z,76.93
2019-03-20T06:10:29.940Z,76.99
2019-03-20T06:13:00.382Z,76.91
2019-03-20T06:15:31.226Z,76.81
2019-03-20T06:18:02.071Z,76.58
2019-03-20T06:20:33.936Z,76.66
2019-03-20T06:23:05.185Z,76.28
2019-03-20T06:25:35.609Z,76.25
2019-03-20T06:28:06.037Z,76.30
2019-03-20T06:30:36.958Z,76.19
2019-03-20T06:33:07.387Z,75.83
2019-03-20T06:35:37.828Z,75.84
2019-03-20T06:38:08.318Z,75.81
2019-03-20T06:40:39.108Z,76.06
2019-03-20T06:43:09.547Z,75.46
2019-03-20T06:45:40.192Z,75.60
2019-03-20T06:48:10.628Z,75.51
2019-03-20T06:50:41.066Z,75.45
2019-03-20T06:53:12.177Z,75.16
2019-03-20T06:55:42.637Z,74.97
2019-03-20T06:58:13.074Z,75.20
2019-03-20T07:01:16.876Z,74.87
2019-03-20T07:04:25.859Z,74.81
2019-03-20T07:07:29.630Z,74.39
2019-03-20T07:10:32.455Z,74.73
2019-03-20T07:13:03.416Z,74.45
2019-03-20T07:15:33.850Z,74.17
2019-03-20T07:18:04.604Z,73.98
2019-03-20T07:20:35.086Z,73.65
2019-03-20T07:23:05.628Z,73.49
2019-03-20T07:25:36.068Z,73.22
2019-03-20T07:28:06.550Z,72.57
2019-03-20T07:30:36.984Z,73.61
2019-03-20T07:33:07.427Z,73.42
2019-03-20T07:35:38.310Z,73.09
2019-03-20T07:38:08.772Z,73.01
2019-03-20T07:40:39.209Z,72.86
2019-03-20T07:43:09.710Z,72.22
2019-03-20T07:45:40.142Z,72.36
2019-03-20T07:48:21.174Z,71.74
2019-03-20T07:50:42.775Z,71.88
2019-03-20T07:53:13.262Z,71.90
2019-03-20T07:55:43.702Z,72.09
2019-03-20T07:58:14.212Z,70.87
2019-03-20T08:00:44.674Z,71.15
2019-03-20T08:03:15.115Z,70.83
2019-03-20T08:05:45.622Z,70.61
2019-03-20T08:08:16.050Z,70.74
2019-03-20T08:10:46.498Z,70.38
2019-03-20T08:13:16.990Z,70.88
2019-03-20T08:15:47.858Z,71.20
2019-03-20T08:18:18.298Z,70.57
2019-03-20T08:20:48.777Z,69.86
2019-03-20T08:23:20.313Z,69.84
2019-03-20T08:25:51.221Z,69.55
2019-03-20T08:28:21.714Z,68.95
2019-03-20T08:30:52.154Z,69.63
2019-03-20T08:33:22.613Z,68.86
2019-03-20T08:35:53.282Z,68.97
2019-03-20T08:38:23.721Z,68.08
2019-03-20T08:40:54.166Z,68.26
2019-03-20T08:43:24.993Z,67.40
2019-03-20T08:45:55.438Z,67.54
2019-03-20T08:48:26.520Z,67.94
2019-03-20T08:50:57.770Z,67.58
2019-03-20T08:53:28.509Z,67.04
2019-03-20T08:55:58.982Z,66.70
2019-03-20T08:58:29.510Z,64.88
2019-03-20T09:00:59.949Z,66.14
2019-03-20T09:03:30.391Z,65.66
2019-03-20T09:06:00.885Z,65.41
2019-03-20T09:08:31.327Z,63.99
2019-03-20T09:11:02.132Z,64.55
2019-03-20T09:13:32.952Z,64.57
2019-03-20T09:16:03.786Z,63.60
2019-03-20T09:18:34.221Z,63.16
2019-03-20T09:21:04.701Z,62.71
2019-03-20T09:23:35.574Z,62.38
2019-03-20T09:26:06.014Z,63.76
2019-03-20T09:28:36.876Z,62.64
2019-03-20T09:31:07.350Z,63.86
2019-03-20T09:33:38.138Z,63.53
2019-03-20T09:36:09.037Z,63.10
2019-03-20T09:38:43.812Z,62.49
2019-03-20T09:41:11.940Z,62.13
2019-03-20T09:43:43.450Z,62.08
2019-03-20T09:46:13.895Z,62.64
2019-03-20T09:48:44.347Z,62.71
2019-03-20T09:51:14.855Z,61.71
2019-03-20T09:53:45.305Z,62.38
2019-03-20T09:56:15.801Z,60.46
2019-03-20T09:58:46.786Z,61.92
2019-03-20T10:01:17.226Z,60.84
2019-03-20T10:03:47.671Z,59.55
2019-03-20T10:06:19.448Z,58.02
2019-03-20T10:08:54.036Z,59.05
2019-03-20T10:11:22.041Z,58.15
2019-03-20T10:13:52.908Z,59.13
2019-03-20T10:16:23.346Z,59.59
2019-03-20T10:18:53.791Z,57.32
2019-03-20T10:21:24.278Z,56.68
2019-03-20T10:23:54.719Z,57.85
2019-03-20T10:26:25.159Z,59.26
2019-03-20T10:28:55.979Z,57.71
2019-03-20T10:31:26.465Z,58.37
2019-03-20T10:33:57.983Z,56.62
2019-03-20T10:36:29.227Z,56.23
2019-03-20T10:39:06.590Z,58.94
2019-03-20T10:41:32.430Z,57.20
2019-03-20T10:44:03.317Z,57.73
2019-03-20T10:46:33.930Z,56.67
2019-03-20T10:49:04.380Z,58.16
2019-03-20T10:51:35.250Z,58.79
2019-03-20T10:54:06.023Z,57.50
2019-03-20T10:56:38.608Z,56.92
2019-03-20T10:59:09.859Z,57.78
2019-03-20T11:01:42.713Z,57.40
2019-03-20T11:04:12.422Z,56.55
2019-03-20T11:06:42.918Z,57.77
2019-03-20T11:09:18.266Z,57.25
2019-03-20T11:11:45.552Z,57.10
2019-03-20T11:14:16.370Z,56.36
2019-03-20T11:16:47.117Z,56.55
2019-03-20T11:19:17.569Z,56.51
2019-03-20T11:21:48.069Z,56.15
2019-03-20T11:24:18.849Z,56.45
2019-03-20T11:26:50.648Z,56.10
2019-03-20T11:29:21.999Z,57.54
2019-03-20T11:31:52.468Z,57.44
2019-03-20T11:34:23.572Z,55.83
2019-03-20T11:36:54.063Z,57.04
2019-03-20T11:39:29.570Z,55.29
2019-03-20T11:41:56.683Z,56.48
2019-03-20T11:44:28.005Z,56.44
2019-03-20T11:46:58.441Z,55.62
2019-03-20T11:49:28.894Z,56.50
2019-03-20T11:52:00.135Z,54.86
2019-03-20T11:54:30.578Z,55.02
2019-03-20T11:57:01.690Z,55.62
2019-03-20T11:59:32.180Z,54.63
2019-03-20T12:02:02.785Z,54.40
2019-03-20T12:04:33.762Z,55.03
2019-03-20T12:07:04.537Z,54.68
2019-03-20T12:09:40.970Z,55.08
2019-03-20T12:12:07.654Z,54.79
2019-03-20T12:14:38.143Z,52.26
2019-03-20T12:17:09.441Z,55.01
2019-03-20T12:19:44.791Z,54.74
2019-03-20T12:22:12.076Z,54.84
2019-03-20T12:24:42.563Z,52.11
2019-03-20T12:27:15.416Z,52.63
2019-03-20T12:29:45.217Z,51.37
2019-03-20T12:32:15.662Z,51.85
2019-03-20T12:34:46.275Z,52.12
2019-03-20T12:37:16.783Z,52.96
2019-03-20T12:39:53.085Z,53.79
2019-03-20T12:42:19.780Z,54.67
2019-03-20T12:44:50.685Z,54.99
2019-03-20T12:47:21.133Z,55.14
2019-03-20T12:49:52.339Z,54.17
2019-03-20T12:52:23.312Z,56.04
2019-03-20T12:54:53.758Z,55.90
2019-03-20T12:57:24.201Z,55.88
2019-03-20T12:59:54.718Z,57.49
2019-03-20T13:02:25.476Z,57.28
2019-03-20T13:04:56.475Z,57.44
2019-03-20T13:07:27.304Z,58.15
2019-03-20T13:10:03.240Z,59.42
2019-03-20T13:12:30.231Z,57.53
2019-03-20T13:15:00.747Z,58.73
2019-03-20T13:17:31.517Z,59.15
2019-03-20T13:20:01.969Z,60.50
2019-03-20T13:22:32.614Z,60.76
2019-03-20T13:25:03.634Z,61.42
2019-03-20T13:27:34.105Z,59.96
2019-03-20T13:30:06.187Z,61.19
2019-03-20T13:32:36.710Z,61.73
2019-03-20T13:35:07.599Z,61.40
2019-03-20T13:37:38.546Z,61.37
2019-03-20T13:40:14.408Z,60.84
2019-03-20T13:42:41.827Z,60.85
2019-03-20T13:45:14.349Z,59.00
2019-03-20T13:47:45.188Z,59.35
2019-03-20T13:50:15.640Z,58.96
2019-03-20T13:52:46.390Z,59.70
2019-03-20T13:55:16.943Z,59.16
2019-03-20T13:57:47.818Z,60.58
2019-03-20T14:00:21.431Z,59.79
2019-03-20T14:02:51.985Z,59.88
2019-03-20T14:05:23.308Z,60.47
2019-03-20T14:07:54.202Z,61.12
2019-03-20T14:10:25.725Z,61.18
2019-03-20T14:12:56.685Z,61.21
2019-03-20T14:15:27.206Z,61.55
2019-03-20T14:17:57.654Z,61.94
2019-03-20T14:20:28.646Z,60.50
2019-03-20T14:22:59.158Z,60.11
2019-03-20T14:25:29.949Z,60.03
2019-03-20T14:28:00.754Z,59.58
2019-03-20T14:30:31.277Z,60.00
2019-03-20T14:33:01.721Z,59.63
2019-03-20T14:35:32.450Z,60.47
2019-03-20T14:38:03.275Z,60.25
2019-03-20T14:40:37.151Z,60.03
2019-03-20T14:43:06.410Z,60.88
2019-03-20T14:45:37.233Z,59.58
2019-03-20T14:48:08.130Z,60.57
2019-03-20T14:50:38.828Z,60.28
2019-03-20T14:53:09.321Z,60.73
2019-03-20T14:55:39.765Z,61.10
2019-03-20T14:58:10.525Z,59.81
2019-03-20T15:00:41.018Z,60.78
2019-03-20T15:03:11.781Z,61.47
2019-03-20T15:05:42.535Z,60.58
2019-03-20T15:08:13.216Z,60.97
2019-03-20T15:10:46.203Z,60.56
2019-03-20T15:13:16.127Z,59.83
2019-03-20T15:15:49.922Z,60.76
2019-03-20T15:18:20.389Z,61.11
2019-03-20T15:20:50.856Z,61.72
2019-03-20T15:23:21.364Z,61.50
2019-03-20T15:25:51.814Z,61.45
2019-03-20T15:28:22.259Z,61.73
2019-03-20T15:30:52.746Z,61.65
2019-03-20T15:33:23.186Z,62.12
2019-03-20T15:35:53.650Z,61.89
2019-03-20T15:38:24.152Z,62.13
2019-03-20T15:40:56.323Z,61.51
2019-03-20T15:43:26.767Z,61.76
2019-03-20T15:45:57.267Z,61.08
2019-03-20T15:48:28.098Z,61.32
2019-03-20T15:50:58.952Z,60.73
2019-03-20T15:53:29.566Z,61.27
2019-03-20T15:56:00.018Z,61.05
2019-03-20T15:58:30.860Z,61.87
2019-03-20T16:01:02.026Z,62.09
2019-03-20T16:03:32.609Z,62.42
2019-03-20T16:06:03.979Z,63.13
2019-03-20T16:08:35.044Z,63.29
2019-03-20T16:11:06.788Z,62.58
2019-03-20T16:13:37.950Z,63.69
2019-03-20T16:16:08.812Z,62.09
2019-03-20T16:18:39.743Z,62.21
2019-03-20T16:21:10.491Z,63.16
2019-03-20T16:23:41.342Z,61.65
2019-03-20T16:26:11.778Z,61.67
2019-03-20T16:28:42.218Z,63.28
2019-03-20T16:31:13.499Z,63.87
2019-03-20T16:33:43.936Z,63.89
2019-03-20T16:36:14.773Z,64.79
2019-03-20T16:38:45.341Z,64.46
2019-03-20T16:41:16.948Z,64.95
2019-03-20T16:43:47.613Z,64.29
2019-03-20T16:46:18.100Z,63.34
2019-03-20T16:48:48.873Z,62.92
2019-03-20T16:51:19.720Z,63.96
2019-03-20T16:53:50.212Z,65.02
2019-03-20T16:56:20.667Z,64.86
2019-03-20T16:58:51.149Z,64.46
2019-03-20T17:01:22.043Z,64.28
2019-03-20T17:03:52.489Z,64.29
2019-03-20T17:06:22.935Z,65.55
2019-03-20T17:08:53.443Z,63.74
2019-03-20T17:11:34.419Z,64.01
2019-03-20T17:13:56.308Z,64.87
2019-03-20T17:16:26.954Z,64.54
2019-03-20T17:18:57.697Z,64.57
2019-03-20T17:21:28.144Z,64.50
2019-03-20T17:23:59.030Z,64.28
2019-03-20T17:26:29.495Z,65.12
2019-03-20T17:29:08.549Z,64.66
2019-03-20T17:31:32.506Z,65.04
2019-03-20T17:34:02.999Z,64.86
2019-03-20T17:36:34.097Z,65.25
2019-03-20T17:39:08.311Z,65.74
2019-03-20T17:41:38.749Z,66.49
2019-03-20T17:44:09.196Z,66.76
2019-03-20T17:46:40.297Z,66.99
2019-03-20T17:49:11.612Z,67.71
2019-03-20T17:51:42.061Z,67.68
2019-03-20T17:54:12.870Z,68.07
2019-03-20T17:56:43.593Z,68.60
2019-03-20T17:59:14.052Z,68.79
2019-03-20T18:01:44.896Z,68.82
2019-03-20T18:04:15.333Z,68.46
2019-03-20T18:06:45.773Z,68.54
2019-03-20T18:09:16.266Z,68.55
2019-03-20T18:11:47.797Z,68.03
2019-03-20T18:14:18.410Z,68.17
2019-03-20T18:16:49.262Z,68.50
2019-03-20T18:19:20.414Z,68.70
2019-03-20T18:21:50.891Z,69.00
2019-03-20T18:24:22.084Z,69.37
2019-03-20T18:26:52.588Z,69.55
2019-03-20T18:29:23.037Z,69.60
2019-03-20T18:31:53.544Z,69.49
2019-03-20T18:34:24.456Z,69.31
2019-03-20T18:36:55.278Z,69.27
2019-03-20T18:39:26.519Z,69.41
2019-03-20T18:41:57.944Z,69.33
2019-03-20T18:44:28.948Z,69.16
2019-03-20T18:46:59.434Z,69.16
2019-03-20T18:49:30.275Z,69.33
2019-03-20T18:52:01.418Z,69.57
2019-03-20T18:54:32.356Z,69.46
2019-03-20T18:57:02.811Z,68.95
2019-03-20T18:59:33.619Z,69.20
2019-03-20T19:02:04.229Z,69.11
2019-03-20T19:04:35.071Z,69.13
2019-03-20T19:07:08.590Z,69.20
2019-03-20T19:09:41.290Z,68.87
2019-03-20T19:12:15.658Z,68.86
2019-03-20T19:14:48.743Z,68.74
2019-03-20T19:17:21.538Z,69.02
2019-03-20T19:19:57.800Z,69.46
2019-03-20T19:22:32.452Z,69.92
2019-03-20T19:25:03.098Z,70.16
2019-03-20T19:27:33.576Z,70.34
2019-03-20T19:30:04.546Z,70.61
2019-03-20T19:32:35.020Z,70.45
2019-03-20T19:35:07.213Z,70.39
2019-03-20T19:37:38.497Z,70.50
2019-03-20T19:40:09.695Z,70.54
2019-03-20T19:42:40.313Z,70.32
2019-03-20T19:45:11.164Z,70.41
2019-03-20T19:47:41.614Z,70.90
2019-03-20T19:50:14.405Z,70.68
2019-03-20T19:52:44.909Z,70.56
2019-03-20T19:55:17.736Z,70.61
2019-03-20T19:57:48.191Z,70.68
2019-03-20T20:00:24.763Z,70.81
2019-03-20T20:02:55.270Z,70.75
2019-03-20T20:05:26.438Z,70.75
2019-03-20T20:07:56.935Z,70.42
2019-03-20T20:10:28.455Z,69.93
2019-03-20T20:12:59.590Z,69.70
2019-03-20T20:15:30.201Z,69.92
2019-03-20T20:18:00.659Z,70.07
2019-03-20T20:20:31.956Z,70.43
2019-03-20T20:23:05.390Z,70.31
2019-03-20T20:25:35.874Z,70.42
2019-03-20T20:28:11.365Z,70.59
2019-03-20T20:30:42.103Z,70.85
2019-03-20T20:33:12.957Z,70.82
2019-03-20T20:35:44.596Z,71.07
2019-03-20T20:38:15.062Z,71.08
2019-03-20T20:40:45.518Z,71.29
2019-03-20T20:43:16.006Z,71.21
2019-03-20T20:45:47.432Z,71.42
2019-03-20T20:48:17.929Z,71.60
2019-03-20T20:50:49.025Z,71.63
2019-03-20T20:53:19.865Z,71.60
2019-03-20T20:55:50.319Z,71.50
2019-03-20T20:58:20.751Z,71.38
2019-03-20T21:00:51.820Z,71.23
2019-03-20T21:03:22.627Z,70.94
2019-03-20T21:05:53.103Z,70.87
2019-03-20T21:08:24.650Z,71.13
2019-03-20T21:10:55.103Z,71.32
2019-03-20T21:13:25.864Z,71.37
2019-03-20T21:15:59.663Z,71.65
2019-03-20T21:19:17.951Z,71.88
2019-03-20T21:22:45.850Z,72.11
2019-03-20T21:25:25.799Z,71.90
2019-03-20T21:29:07.572Z,72.13
2019-03-20T21:31:48.559Z,72.12
2019-03-20T21:34:44.911Z,72.61
2019-03-20T21:38:02.614Z,72.59
2019-03-20T21:40:52.776Z,72.84
2019-03-20T21:44:09.533Z,72.97
2019-03-20T21:47:10.169Z,72.95
2019-03-20T21:49:41.196Z,72.98
2019-03-20T21:52:12.163Z,73.28
2019-03-20T21:55:28.335Z,73.44
2019-03-20T21:58:13.745Z,73.64
2019-03-20T22:01:30.487Z,73.81
2019-03-20T22:04:01.490Z,74.05
2019-03-20T22:07:07.566Z,74.04
2019-03-20T22:10:19.905Z,74.14
2019-03-20T22:13:04.861Z,74.28
2019-03-20T22:16:14.772Z,74.41
2019-03-20T22:19:23.907Z,74.44
2019-03-20T22:22:45.734Z,74.79
2019-03-20T22:25:46.529Z,74.77
2019-03-20T22:28:57.018Z,75.01
2019-03-20T22:31:28.318Z,75.21
2019-03-20T22:34:48.878Z,75.22
2019-03-20T22:37:20.065Z,75.36
2019-03-20T22:40:37.357Z,75.71
2019-03-20T22:43:32.929Z,75.73
2019-03-20T22:46:45.353Z,75.89
2019-03-20T22:50:10.052Z,75.64
2019-03-20T22:53:15.081Z,75.75
2019-03-20T22:56:29.794Z,75.98
2019-03-20T22:59:00.782Z,75.97
2019-03-20T23:01:42.826Z,75.97
2019-03-20T23:04:20.492Z,76.23
2019-03-20T23:06:51.617Z,76.50
2019-03-20T23:09:22.466Z,76.49
2019-03-20T23:11:53.722Z,76.61
2019-03-20T23:14:25.045Z,76.56
2019-03-20T23:16:56.219Z,76.73
2019-03-20T23:19:27.107Z,76.69
2019-03-20T23:21:57.971Z,76.90
2019-03-20T23:24:28.812Z,76.71
2019-03-20T23:27:01.215Z,76.59
2019-03-20T23:29:32.063Z,76.67
2019-03-20T23:32:03.472Z,76.76
2019-03-20T23:34:34.362Z,76.91
2019-03-20T23:37:05.208Z,76.93
2019-03-20T23:39:36.067Z,76.90
2019-03-20T23:42:07.591Z,77.13
2019-03-20T23:44:38.828Z,77.12
2019-03-20T23:47:09.679Z,76.89
2019-03-20T23:49:40.579Z,76.99
2019-03-20T23:52:11.410Z,76.76
2019-03-20T23:54:48.294Z,76.75
2019-03-20T23:57:20.034Z,77.04
2019-03-20T23:59:51.589Z,77.04
